Murphy, Argentina
Current Conditions -  °F | °C
As of 9:00 PM on Monday 24 Nov 2014 (Local Time) from SAAR Reporting Station
Clear Clear  
Wind Chill: 68°   Ceiling: Unl
Heat Index: 68°   Visibility: 6mi
Dew Point: 48°   Wind: 6mph
Humidity: 49%   Direction: 160°SSE
Pressure: 29.85"   Gusts: NA
Location:  33.63°S, 61.87°W
Report Text: SAAR 250000Z 16005KT CAVOK 20/09 Q1011
Loading
Personal Weather Stations






























Interactive Weather Map New forecast layout! Learn more

10-Day Weather Forecast

Advertisements
Track Severe Weather on mobile